Glenburnie, Maryland
Current Conditions -  °F | °C
As of 10:54 PM on Tuesday 21 Oct 2014 (Local Time) from KBWI Reporting Station
Light Rain Light Rain  
Wind Chill: 12°   Ceiling: 6000
Heat Index: 12°   Visibility: 5mi
Dew Point: 11°   Wind: 6mph
Humidity: 96%   Direction: 290°WNW
Pressure: 29.91"   Gusts: NA
Location:  39.1648°N, 76.6418°W
Report Text: KBWI 220254Z 29005KT 5SM -RA BR SCT042 OVC060 12/11 A2991 RMK AO2 SLP128 P0005 60012 T01170111 51016
Loading
Personal Weather Stations






























Interactive Weather Map
Tropical Storm Tracking
New forecast layout! Learn more

10-Day Weather Forecast

Advertisements
Track Severe Weather on mobile